createdAt,value
2023-04-16T00:00:00.704Z,22.56
2023-04-16T00:00:32.133Z,22.52
2023-04-16T00:01:03.527Z,22.55
2023-04-16T00:01:34.912Z,22.55
2023-04-16T00:02:06.366Z,22.55
2023-04-16T00:02:37.931Z,22.53
2023-04-16T00:03:09.580Z,22.57
2023-04-16T00:03:41.534Z,22.57
2023-04-16T00:04:13.257Z,22.59
2023-04-16T00:04:44.986Z,22.58
2023-04-16T00:05:16.456Z,22.61
2023-04-16T00:05:47.875Z,22.59
2023-04-16T00:06:19.397Z,22.57
2023-04-16T00:06:50.786Z,22.57
2023-04-16T00:07:22.220Z,22.61
2023-04-16T00:07:53.633Z,22.59
2023-04-16T00:08:25.015Z,22.57
2023-04-16T00:08:56.502Z,22.56
2023-04-16T00:09:27.903Z,22.59
2023-04-16T00:09:59.262Z,22.58
2023-04-16T00:10:30.648Z,22.62
2023-04-16T00:11:02.033Z,22.57
2023-04-16T00:11:33.554Z,22.59
2023-04-16T00:12:04.910Z,22.55
2023-04-16T00:12:36.426Z,22.55
2023-04-16T00:13:07.924Z,22.55
2023-04-16T00:13:39.387Z,22.57
2023-04-16T00:14:10.852Z,22.58
2023-04-16T00:14:42.291Z,22.59
2023-04-16T00:15:13.858Z,22.58
2023-04-16T00:15:45.247Z,22.58
2023-04-16T00:16:16.708Z,22.57
2023-04-16T00:16:48.206Z,22.59
2023-04-16T00:17:19.776Z,22.59
2023-04-16T00:17:51.388Z,22.57
2023-04-16T00:18:22.883Z,22.58
2023-04-16T00:18:54.286Z,22.57
2023-04-16T00:19:25.655Z,22.56
2023-04-16T00:19:57.118Z,22.59
2023-04-16T00:20:28.520Z,22.58
2023-04-16T00:21:00.001Z,22.55
2023-04-16T00:21:31.406Z,22.55
2023-04-16T00:22:02.875Z,22.54
2023-04-16T00:22:34.358Z,22.59
2023-04-16T00:23:05.771Z,22.58
2023-04-16T00:23:37.159Z,22.55
2023-04-16T00:24:08.652Z,22.56
2023-04-16T00:24:40.080Z,22.55
2023-04-16T00:25:11.546Z,22.57
2023-04-16T00:25:42.985Z,22.60
2023-04-16T00:26:14.398Z,22.62
2023-04-16T00:26:45.896Z,22.58
2023-04-16T00:27:17.347Z,22.62
2023-04-16T00:27:48.799Z,22.56
2023-04-16T00:28:20.229Z,22.57
2023-04-16T00:28:51.624Z,22.60
2023-04-16T00:29:23.068Z,22.54
2023-04-16T00:29:54.696Z,22.57
2023-04-16T00:30:26.110Z,22.55
2023-04-16T00:30:57.601Z,22.56
2023-04-16T00:31:29.155Z,22.55
2023-04-16T00:32:00.760Z,22.56
2023-04-16T00:32:32.204Z,22.55
2023-04-16T00:33:03.626Z,22.54
2023-04-16T00:33:35.037Z,22.56
2023-04-16T00:34:06.456Z,22.56
2023-04-16T00:34:37.841Z,22.56
2023-04-16T00:35:09.244Z,22.54
2023-04-16T00:35:40.626Z,22.52
2023-04-16T00:36:12.028Z,22.53
2023-04-16T00:36:43.424Z,22.55
2023-04-16T00:37:14.921Z,22.55
2023-04-16T00:37:46.291Z,22.60
2023-04-16T00:38:17.745Z,22.61
2023-04-16T00:38:49.128Z,22.59
2023-04-16T00:39:20.477Z,22.59
2023-04-16T00:39:51.901Z,22.59
2023-04-16T00:40:23.279Z,22.57
2023-04-16T00:40:54.687Z,22.56
2023-04-16T00:41:26.164Z,22.55
2023-04-16T00:41:57.536Z,22.55
2023-04-16T00:42:29.005Z,22.55
2023-04-16T00:43:00.409Z,22.55
2023-04-16T00:43:31.852Z,22.54
2023-04-16T00:44:03.291Z,22.59
2023-04-16T00:44:34.701Z,22.58
2023-04-16T00:45:06.109Z,22.59
2023-04-16T00:45:37.502Z,22.58
2023-04-16T00:46:08.915Z,22.58
2023-04-16T00:46:40.568Z,22.56
2023-04-16T00:47:12.072Z,22.55
2023-04-16T00:47:43.659Z,22.54
2023-04-16T00:48:15.180Z,22.54
2023-04-16T00:48:46.605Z,22.56
2023-04-16T00:49:18.021Z,22.55
2023-04-16T00:49:49.627Z,22.59
2023-04-16T00:50:20.983Z,22.57
2023-04-16T00:50:52.458Z,22.59
2023-04-16T00:51:23.860Z,22.59
2023-04-16T00:51:55.256Z,22.60
2023-04-16T00:52:26.638Z,22.57
2023-04-16T00:52:58.081Z,22.55
2023-04-16T00:53:29.511Z,22.57
2023-04-16T00:54:00.894Z,22.54
2023-04-16T00:54:32.311Z,22.52
2023-04-16T00:55:03.822Z,22.56
2023-04-16T00:55:35.234Z,22.54
2023-04-16T00:56:06.660Z,22.55
2023-04-16T00:56:38.138Z,22.56
2023-04-16T00:57:09.553Z,22.55
2023-04-16T00:57:40.998Z,22.55
2023-04-16T00:58:12.482Z,22.54
2023-04-16T00:58:43.930Z,22.55
2023-04-16T00:59:15.377Z,22.54
2023-04-16T00:59:46.786Z,22.54
2023-04-16T01:00:18.329Z,22.55
2023-04-16T01:00:49.741Z,22.53
2023-04-16T01:01:21.601Z,22.54
2023-04-16T01:01:53.238Z,22.56
2023-04-16T01:02:24.739Z,22.54
2023-04-16T01:02:56.379Z,22.52
2023-04-16T01:03:28.080Z,22.50
2023-04-16T01:03:59.718Z,22.49
2023-04-16T01:04:31.295Z,22.50
2023-04-16T01:05:02.824Z,22.52
2023-04-16T01:05:34.342Z,22.49
2023-04-16T01:06:39.756Z,22.49
2023-04-16T01:07:10.929Z,22.50
2023-04-16T01:07:42.092Z,22.50
2023-04-16T01:08:13.276Z,22.49
2023-04-16T01:08:44.455Z,22.46
2023-04-16T01:09:15.625Z,22.49
2023-04-16T01:09:46.785Z,22.51
2023-04-16T01:10:17.962Z,22.52
2023-04-16T01:10:49.134Z,22.50
2023-04-16T01:11:51.477Z,22.48
2023-04-16T01:12:22.652Z,22.47
2023-04-16T01:12:53.820Z,22.49
2023-04-16T01:13:24.992Z,22.49
2023-04-16T01:14:27.372Z,22.47
2023-04-16T01:14:58.581Z,22.47
2023-04-16T01:15:29.750Z,22.47
2023-04-16T01:16:00.952Z,22.50
2023-04-16T01:16:32.123Z,22.51
2023-04-16T01:17:03.312Z,22.50
2023-04-16T01:18:05.862Z,22.46
2023-04-16T01:18:37.293Z,22.49
2023-04-16T01:19:08.974Z,22.48
2023-04-16T01:19:40.567Z,22.47
2023-04-16T01:20:12.027Z,22.50
2023-04-16T01:20:43.363Z,22.50
2023-04-16T01:21:14.761Z,22.49
2023-04-16T01:21:46.262Z,22.49
2023-04-16T01:22:17.696Z,22.50
2023-04-16T01:22:49.076Z,22.49
2023-04-16T01:23:20.541Z,22.49
2023-04-16T01:23:51.891Z,22.46
2023-04-16T01:25:26.032Z,22.48
2023-04-16T01:25:57.436Z,22.50
2023-04-16T01:26:28.788Z,22.47
2023-04-16T01:27:00.303Z,22.47
2023-04-16T01:27:31.780Z,22.47
2023-04-16T01:28:03.164Z,22.50
2023-04-16T01:28:34.596Z,22.52
2023-04-16T01:29:05.938Z,22.52
2023-04-16T01:29:37.420Z,22.49
2023-04-16T01:30:08.820Z,22.53
2023-04-16T01:30:40.177Z,22.52
2023-04-16T01:31:11.569Z,22.52
2023-04-16T01:31:42.997Z,22.50
2023-04-16T01:33:48.697Z,22.47
2023-04-16T01:34:20.073Z,22.49
2023-04-16T01:34:51.460Z,22.51
2023-04-16T01:35:22.812Z,22.49
2023-04-16T01:35:54.304Z,22.52
2023-04-16T01:36:25.702Z,22.52
2023-04-16T01:36:57.084Z,22.49
2023-04-16T01:37:28.507Z,22.50
2023-04-16T01:37:59.901Z,22.49
2023-04-16T01:38:31.279Z,22.47
2023-04-16T01:39:34.096Z,22.51
2023-04-16T01:40:05.426Z,22.51
2023-04-16T01:40:36.815Z,22.48
2023-04-16T01:41:08.167Z,22.48
2023-04-16T01:41:39.670Z,22.47
2023-04-16T01:42:11.101Z,22.50
2023-04-16T01:42:42.524Z,22.48
2023-04-16T01:43:45.273Z,22.46
2023-04-16T01:44:16.684Z,22.48
2023-04-16T01:44:48.078Z,22.47
2023-04-16T01:45:19.532Z,22.49
2023-04-16T01:45:50.909Z,22.51
2023-04-16T01:46:22.349Z,22.49
2023-04-16T01:46:53.898Z,22.49
2023-04-16T01:47:25.322Z,22.49
2023-04-16T01:47:56.805Z,22.49
2023-04-16T01:48:28.210Z,22.48
2023-04-16T01:48:59.555Z,22.48
2023-04-16T01:49:30.946Z,22.49
2023-04-16T01:50:02.341Z,22.50
2023-04-16T01:50:33.809Z,22.49
2023-04-16T01:51:05.169Z,22.47
2023-04-16T01:51:36.529Z,22.47
2023-04-16T01:52:07.925Z,22.46
2023-04-16T01:52:39.273Z,22.46
2023-04-16T01:53:10.776Z,22.46
2023-04-16T01:53:42.167Z,22.46
2023-04-16T01:54:13.558Z,22.46
2023-04-16T01:54:44.956Z,22.49
2023-04-16T01:55:16.331Z,22.48
2023-04-16T01:55:47.738Z,22.50
2023-04-16T01:56:19.109Z,22.48
2023-04-16T01:56:50.506Z,22.49
2023-04-16T01:57:21.967Z,22.49
2023-04-16T01:57:53.528Z,22.48
2023-04-16T01:58:24.883Z,22.51
2023-04-16T01:58:56.265Z,22.48
2023-04-16T01:59:27.662Z,22.49
2023-04-16T01:59:59.088Z,22.47
2023-04-16T02:00:30.445Z,22.46
2023-04-16T02:01:01.800Z,22.48
2023-04-16T02:01:33.247Z,22.49
2023-04-16T02:02:04.720Z,22.49
2023-04-16T02:02:36.300Z,22.50
2023-04-16T02:03:07.945Z,22.49
2023-04-16T02:03:39.484Z,22.49
2023-04-16T02:04:11.004Z,22.47
2023-04-16T02:04:42.466Z,22.45
2023-04-16T02:05:13.846Z,22.49
2023-04-16T02:05:45.200Z,22.49
2023-04-16T02:06:47.997Z,22.50
2023-04-16T02:07:19.398Z,22.49
2023-04-16T02:07:50.827Z,22.52
2023-04-16T02:08:22.212Z,22.49
2023-04-16T02:08:53.693Z,22.48
2023-04-16T02:09:25.108Z,22.49
2023-04-16T02:09:56.419Z,22.47
2023-04-16T02:10:27.773Z,22.49
2023-04-16T02:10:59.126Z,22.48
2023-04-16T02:12:01.880Z,22.49
2023-04-16T02:12:33.274Z,22.46
2023-04-16T02:13:04.619Z,22.49
2023-04-16T02:13:36.062Z,22.47
2023-04-16T02:14:07.466Z,22.47
2023-04-16T02:14:38.827Z,22.46
2023-04-16T02:15:10.200Z,22.47
2023-04-16T02:15:41.569Z,22.46
2023-04-16T02:16:13.012Z,22.48
2023-04-16T02:17:15.926Z,22.50
2023-04-16T02:17:47.324Z,22.51
2023-04-16T02:18:18.719Z,22.49
2023-04-16T02:18:50.119Z,22.50
2023-04-16T02:19:21.524Z,22.52
2023-04-16T02:19:52.907Z,22.50
2023-04-16T02:20:24.319Z,22.48
2023-04-16T02:20:55.690Z,22.48
2023-04-16T02:21:27.085Z,22.50
2023-04-16T02:21:58.491Z,22.46
2023-04-16T02:22:29.878Z,22.46
2023-04-16T02:23:32.581Z,22.47
2023-04-16T02:24:35.410Z,22.46
2023-04-16T02:25:38.176Z,22.46
2023-04-16T02:26:09.593Z,22.49
2023-04-16T02:26:40.944Z,22.48
2023-04-16T02:27:12.350Z,22.46
2023-04-16T02:28:15.179Z,22.46
2023-04-16T02:28:46.557Z,22.43
2023-04-16T02:29:17.933Z,22.43
2023-04-16T02:29:49.321Z,22.46
2023-04-16T02:30:20.708Z,22.45
2023-04-16T02:30:52.093Z,22.49
2023-04-16T02:31:23.644Z,22.46
2023-04-16T02:31:55.132Z,22.46
2023-04-16T02:32:26.594Z,22.48
2023-04-16T02:32:58.062Z,22.48
2023-04-16T02:33:29.515Z,22.45
2023-04-16T02:34:32.206Z,22.52
2023-04-16T02:35:03.559Z,22.48
2023-04-16T02:36:06.311Z,22.49
2023-04-16T02:37:09.092Z,22.46
2023-04-16T02:38:11.876Z,22.48
2023-04-16T02:39:14.646Z,22.48
2023-04-16T02:39:46.096Z,22.47
2023-04-16T02:40:17.425Z,22.45
2023-04-16T02:40:48.808Z,22.45
2023-04-16T02:41:20.187Z,22.50
2023-04-16T02:41:51.617Z,22.46
2023-04-16T02:42:23.023Z,22.47
2023-04-16T02:43:25.976Z,22.46
2023-04-16T02:43:57.329Z,22.46
2023-04-16T02:44:28.666Z,22.45
2023-04-16T02:45:00.008Z,22.43
2023-04-16T02:45:31.387Z,22.46
2023-04-16T02:46:02.866Z,22.44
2023-04-16T02:46:34.311Z,22.46
2023-04-16T02:47:05.713Z,22.45
2023-04-16T02:47:37.128Z,22.45
2023-04-16T02:48:08.604Z,22.45
2023-04-16T02:48:39.985Z,22.48
2023-04-16T02:49:11.500Z,22.47
2023-04-16T02:49:43.128Z,22.46
2023-04-16T02:50:14.489Z,22.44
2023-04-16T02:50:45.913Z,22.46
2023-04-16T02:51:17.233Z,22.46
2023-04-16T02:51:48.642Z,22.44
2023-04-16T02:52:20.026Z,22.44
2023-04-16T02:52:51.437Z,22.44
2023-04-16T02:53:22.888Z,22.43
2023-04-16T02:53:54.277Z,22.48
2023-04-16T02:54:25.682Z,22.49
2023-04-16T02:54:57.049Z,22.46
2023-04-16T02:55:28.423Z,22.45
2023-04-16T02:55:59.780Z,22.46
2023-04-16T02:56:31.141Z,22.45
2023-04-16T02:57:02.598Z,22.46
2023-04-16T02:57:34.048Z,22.45
2023-04-16T02:58:05.430Z,22.47
2023-04-16T02:58:36.805Z,22.50
2023-04-16T02:59:08.335Z,22.46
2023-04-16T02:59:39.927Z,22.46
2023-04-16T03:00:11.374Z,22.47
2023-04-16T03:00:42.770Z,22.49
2023-04-16T03:01:14.182Z,22.48
2023-04-16T03:01:45.715Z,22.47
2023-04-16T03:02:17.260Z,22.50
2023-04-16T03:02:48.881Z,22.51
2023-04-16T03:03:20.462Z,22.50
2023-04-16T03:03:51.889Z,22.51
2023-04-16T03:04:23.351Z,22.54
2023-04-16T03:04:54.732Z,22.52
2023-04-16T03:05:26.115Z,22.50
2023-04-16T03:05:57.499Z,22.55
2023-04-16T03:06:28.868Z,22.49
2023-04-16T03:07:00.280Z,22.53
2023-04-16T03:07:31.725Z,22.51
2023-04-16T03:08:03.123Z,22.50
2023-04-16T03:08:34.496Z,22.54
2023-04-16T03:09:05.917Z,22.52
2023-04-16T03:09:37.277Z,22.53
2023-04-16T03:10:08.676Z,22.56
2023-04-16T03:10:40.059Z,22.58
2023-04-16T03:11:11.403Z,22.56
2023-04-16T03:11:42.783Z,22.55
2023-04-16T03:12:14.211Z,22.54
2023-04-16T03:12:45.567Z,22.53
2023-04-16T03:13:16.992Z,22.52
2023-04-16T03:13:48.384Z,22.55
2023-04-16T03:14:19.837Z,22.55
2023-04-16T03:14:51.205Z,22.60
2023-04-16T03:15:22.628Z,22.56
2023-04-16T03:15:54.079Z,22.57
2023-04-16T03:16:28.449Z,22.57
2023-04-16T03:16:59.811Z,22.59
2023-04-16T03:17:31.216Z,22.54
2023-04-16T03:18:02.667Z,22.51
2023-04-16T03:18:34.017Z,22.52
2023-04-16T03:19:05.384Z,22.51
2023-04-16T03:19:36.739Z,22.53
2023-04-16T03:20:08.125Z,22.51
2023-04-16T03:20:39.564Z,22.57
2023-04-16T03:21:10.914Z,22.55
2023-04-16T03:21:42.280Z,22.54
2023-04-16T03:22:13.667Z,22.52
2023-04-16T03:22:45.080Z,22.52
2023-04-16T03:23:16.442Z,22.54
2023-04-16T03:23:47.812Z,22.56
2023-04-16T03:24:19.169Z,22.61
2023-04-16T03:24:50.594Z,22.57
2023-04-16T03:25:21.946Z,22.56
2023-04-16T03:25:53.332Z,22.60
2023-04-16T03:26:24.740Z,22.57
2023-04-16T03:26:56.069Z,22.55
2023-04-16T03:27:27.454Z,22.53
2023-04-16T03:27:58.878Z,22.54
2023-04-16T03:28:30.400Z,22.51
2023-04-16T03:29:01.826Z,22.51
2023-04-16T03:29:33.167Z,22.52
2023-04-16T03:30:04.501Z,22.56
2023-04-16T03:30:35.955Z,22.54
2023-04-16T03:31:07.338Z,22.56
2023-04-16T03:31:38.839Z,22.56
2023-04-16T03:32:10.308Z,22.55
2023-04-16T03:32:41.795Z,22.54
2023-04-16T03:33:13.323Z,22.54
2023-04-16T03:33:44.667Z,22.60
2023-04-16T03:34:16.106Z,22.62
2023-04-16T03:34:47.490Z,22.57
2023-04-16T03:35:18.857Z,22.57
2023-04-16T03:35:50.233Z,22.58
2023-04-16T03:36:21.593Z,22.61
2023-04-16T03:36:52.988Z,22.62
2023-04-16T03:37:24.337Z,22.60
2023-04-16T03:37:55.780Z,22.57
2023-04-16T03:38:27.223Z,22.57
2023-04-16T03:38:58.625Z,22.59
2023-04-16T03:39:30.119Z,22.55
2023-04-16T03:40:01.548Z,22.56
2023-04-16T03:40:32.923Z,22.56
2023-04-16T03:41:04.334Z,22.52
2023-04-16T03:41:35.667Z,22.52
2023-04-16T03:42:07.051Z,22.51
2023-04-16T03:42:38.398Z,22.52
2023-04-16T03:43:09.786Z,22.52
2023-04-16T03:43:41.158Z,22.56
2023-04-16T03:44:12.574Z,22.54
2023-04-16T03:44:43.964Z,22.55
2023-04-16T03:45:15.289Z,22.57
2023-04-16T03:45:46.763Z,22.60
2023-04-16T03:46:18.157Z,22.56
2023-04-16T03:46:49.565Z,22.55
2023-04-16T03:47:20.958Z,22.52
2023-04-16T03:47:52.491Z,22.52
2023-04-16T03:48:24.085Z,22.52
2023-04-16T03:48:55.536Z,22.56
2023-04-16T03:49:26.895Z,22.57
2023-04-16T03:49:58.251Z,22.59
2023-04-16T03:50:29.641Z,22.55
2023-04-16T03:51:00.971Z,22.55
2023-04-16T03:51:32.339Z,22.58
2023-04-16T03:52:03.754Z,22.54
2023-04-16T03:52:35.208Z,22.51
2023-04-16T03:53:06.623Z,22.54
2023-04-16T03:53:38.092Z,22.51
2023-04-16T03:54:09.496Z,22.55
2023-04-16T03:54:40.878Z,22.53
2023-04-16T03:55:12.329Z,22.58
2023-04-16T03:55:43.753Z,22.55
2023-04-16T03:56:15.129Z,22.54
2023-04-16T03:56:46.508Z,22.52
2023-04-16T03:57:17.861Z,22.55
2023-04-16T03:57:49.256Z,22.54
2023-04-16T03:58:20.709Z,22.54
2023-04-16T03:58:52.177Z,22.56
2023-04-16T03:59:23.765Z,22.56
2023-04-16T03:59:55.112Z,22.58
2023-04-16T04:00:26.457Z,22.56
2023-04-16T04:00:57.831Z,22.57
2023-04-16T04:01:29.200Z,22.52
2023-04-16T04:02:00.639Z,22.58
2023-04-16T04:02:32.356Z,22.57
2023-04-16T04:03:04.219Z,22.56
2023-04-16T04:03:36.124Z,22.57
2023-04-16T04:04:07.827Z,22.58
2023-04-16T04:04:39.490Z,22.57
2023-04-16T04:05:11.024Z,22.60
2023-04-16T04:05:42.473Z,22.55
2023-04-16T04:06:13.894Z,22.57
2023-04-16T04:06:45.294Z,22.55
2023-04-16T04:07:16.706Z,22.57
2023-04-16T04:07:48.096Z,22.56
2023-04-16T04:08:19.497Z,22.61
2023-04-16T04:08:50.979Z,22.59
2023-04-16T04:09:22.339Z,22.58
2023-04-16T04:09:53.696Z,22.58
2023-04-16T04:10:25.078Z,22.54
2023-04-16T04:10:56.466Z,22.56
2023-04-16T04:11:27.806Z,22.52
2023-04-16T04:11:59.153Z,22.59
2023-04-16T04:12:30.545Z,22.54
2023-04-16T04:13:01.919Z,22.52
2023-04-16T04:13:33.298Z,22.57
2023-04-16T04:14:04.704Z,22.55
2023-04-16T04:14:36.188Z,22.59
2023-04-16T04:15:07.564Z,22.54
2023-04-16T04:15:38.937Z,22.52
2023-04-16T04:16:10.399Z,22.51
2023-04-16T04:16:41.782Z,22.56
2023-04-16T04:17:13.193Z,22.54
2023-04-16T04:17:44.572Z,22.54
2023-04-16T04:18:16.011Z,22.59
2023-04-16T04:18:47.381Z,22.54
2023-04-16T04:19:18.738Z,22.52
2023-04-16T04:20:00.398Z,22.55
2023-04-16T04:20:32.189Z,22.60
2023-04-16T04:21:03.601Z,22.55
2023-04-16T04:21:35.021Z,22.55
2023-04-16T04:22:06.377Z,22.56
2023-04-16T04:22:37.814Z,22.53
2023-04-16T04:23:09.191Z,22.58
2023-04-16T04:23:40.560Z,22.59
2023-04-16T04:24:11.885Z,22.66
2023-04-16T04:24:43.264Z,22.58
2023-04-16T04:25:14.668Z,22.57
2023-04-16T04:25:46.136Z,22.56
2023-04-16T04:26:17.695Z,22.56
2023-04-16T04:26:49.256Z,22.57
2023-04-16T04:27:20.677Z,22.58
2023-04-16T04:27:52.040Z,22.56
2023-04-16T04:28:23.436Z,22.57
2023-04-16T04:28:54.819Z,22.56
2023-04-16T04:29:26.180Z,22.58
2023-04-16T04:29:57.532Z,22.57
2023-04-16T04:30:28.921Z,22.56
2023-04-16T04:31:00.301Z,22.54
2023-04-16T04:31:31.683Z,22.57
2023-04-16T04:32:03.209Z,22.54
2023-04-16T04:32:34.662Z,22.56
2023-04-16T04:33:06.241Z,22.54
2023-04-16T04:33:37.653Z,22.52
2023-04-16T04:34:09.089Z,22.55
2023-04-16T04:34:40.468Z,22.56
2023-04-16T04:35:11.861Z,22.60
2023-04-16T04:35:43.452Z,22.54
2023-04-16T04:36:14.875Z,22.54
2023-04-16T04:36:46.294Z,22.56
2023-04-16T04:37:17.609Z,22.57
2023-04-16T04:37:49.017Z,22.56
2023-04-16T04:38:20.440Z,22.54
2023-04-16T04:38:51.880Z,22.55
2023-04-16T04:39:23.229Z,22.57
2023-04-16T04:39:54.581Z,22.55
2023-04-16T04:40:25.973Z,22.57
2023-04-16T04:40:57.413Z,22.55
2023-04-16T04:41:28.790Z,22.58
2023-04-16T04:42:00.212Z,22.61
2023-04-16T04:42:31.659Z,22.58
2023-04-16T04:43:03.030Z,22.61
2023-04-16T04:43:34.446Z,22.60
2023-04-16T04:44:05.827Z,22.60
2023-04-16T04:44:37.152Z,22.60
2023-04-16T04:45:08.565Z,22.57
2023-04-16T04:45:39.967Z,22.58
2023-04-16T04:46:11.596Z,22.57
2023-04-16T04:46:43.010Z,22.54
2023-04-16T04:47:14.483Z,22.55
2023-04-16T04:47:45.847Z,22.57
2023-04-16T04:48:17.280Z,22.58
2023-04-16T04:48:48.729Z,22.57
2023-04-16T04:49:20.126Z,22.60
2023-04-16T04:49:51.483Z,22.56
2023-04-16T04:50:22.885Z,22.50
2023-04-16T04:50:54.241Z,22.54
2023-04-16T04:51:25.715Z,22.50
2023-04-16T04:51:57.092Z,22.51
2023-04-16T04:52:28.467Z,22.57
2023-04-16T04:52:59.820Z,22.54
2023-04-16T04:53:31.200Z,22.57
2023-04-16T04:54:02.604Z,22.58
2023-04-16T04:54:34.023Z,22.55
2023-04-16T04:55:05.418Z,22.55
2023-04-16T04:55:36.873Z,22.59
2023-04-16T04:56:12.100Z,22.57
2023-04-16T04:56:44.620Z,22.56
2023-04-16T04:57:16.072Z,22.59
2023-04-16T04:57:47.510Z,22.61
2023-04-16T04:58:18.934Z,22.60
2023-04-16T04:58:50.419Z,22.59
2023-04-16T04:59:21.824Z,22.57
2023-04-16T04:59:53.238Z,22.52
2023-04-16T05:00:24.668Z,22.57
2023-04-16T05:00:56.150Z,22.57
2023-04-16T05:01:27.582Z,22.54
2023-04-16T05:01:59.104Z,22.55
2023-04-16T05:02:30.575Z,22.57
2023-04-16T05:03:02.140Z,22.56
2023-04-16T05:03:33.763Z,22.55
2023-04-16T05:04:05.288Z,22.54
2023-04-16T05:04:36.762Z,22.55
2023-04-16T05:05:08.255Z,22.52
2023-04-16T05:05:39.699Z,22.60
2023-04-16T05:06:11.165Z,22.56
2023-04-16T05:06:42.519Z,22.60
2023-04-16T05:07:13.904Z,22.64
2023-04-16T05:07:45.232Z,22.60
2023-04-16T05:08:16.625Z,22.61
2023-04-16T05:08:48.058Z,22.60
2023-04-16T05:09:19.443Z,22.59
2023-04-16T05:09:50.897Z,22.58
2023-04-16T05:10:22.318Z,22.61
2023-04-16T05:10:53.750Z,22.60
2023-04-16T05:11:25.122Z,22.58
2023-04-16T05:11:56.509Z,22.58
2023-04-16T05:12:27.902Z,22.55
2023-04-16T05:12:59.270Z,22.58
2023-04-16T05:13:30.632Z,22.56
2023-04-16T05:14:02.009Z,22.54
2023-04-16T05:14:33.395Z,22.54
2023-04-16T05:15:04.786Z,22.52
2023-04-16T05:15:36.200Z,22.54
2023-04-16T05:16:07.625Z,22.54
2023-04-16T05:16:39.065Z,22.54
2023-04-16T05:17:10.426Z,22.56
2023-04-16T05:17:41.807Z,22.53
2023-04-16T05:18:13.226Z,22.57
2023-04-16T05:18:44.694Z,22.54
2023-04-16T05:19:16.062Z,22.54
2023-04-16T05:19:47.497Z,22.55
2023-04-16T05:20:18.870Z,22.51
2023-04-16T05:20:50.259Z,22.55
2023-04-16T05:21:21.732Z,22.60
2023-04-16T05:21:53.074Z,22.55
2023-04-16T05:22:24.531Z,22.55
2023-04-16T05:22:55.858Z,22.55
2023-04-16T05:23:27.204Z,22.57
2023-04-16T05:23:58.560Z,22.53
2023-04-16T05:24:29.969Z,22.54
2023-04-16T05:25:01.376Z,22.56
2023-04-16T05:25:32.846Z,22.56
2023-04-16T05:26:04.223Z,22.56
2023-04-16T05:26:35.695Z,22.59
2023-04-16T05:27:07.066Z,22.60
2023-04-16T05:27:38.465Z,22.63
2023-04-16T05:28:09.900Z,22.60
2023-04-16T05:28:41.245Z,22.58
2023-04-16T05:29:12.622Z,22.55
2023-04-16T05:29:43.964Z,22.55
2023-04-16T05:30:15.375Z,22.60
2023-04-16T05:30:46.786Z,22.57
2023-04-16T05:31:18.239Z,22.58
2023-04-16T05:31:49.713Z,22.56
2023-04-16T05:32:21.086Z,22.58
2023-04-16T05:32:52.530Z,22.60
2023-04-16T05:33:23.905Z,22.58
2023-04-16T05:33:55.325Z,22.58
2023-04-16T05:34:26.743Z,22.55
2023-04-16T05:34:58.132Z,22.54
2023-04-16T05:35:29.529Z,22.52
2023-04-16T05:36:00.901Z,22.52
2023-04-16T05:36:32.307Z,22.54
2023-04-16T05:37:03.777Z,22.50
2023-04-16T05:37:35.144Z,22.51
2023-04-16T05:38:06.563Z,22.54
2023-04-16T05:38:37.900Z,22.55
2023-04-16T05:39:09.567Z,22.55
2023-04-16T05:39:41.023Z,22.57
2023-04-16T05:40:12.338Z,22.59
2023-04-16T05:40:43.697Z,22.58
2023-04-16T05:41:15.118Z,22.54
2023-04-16T05:41:46.483Z,22.56
2023-04-16T05:42:17.920Z,22.55
2023-04-16T05:42:49.285Z,22.56
2023-04-16T05:43:20.628Z,22.54
2023-04-16T05:43:51.994Z,22.54
2023-04-16T05:44:23.374Z,22.56
2023-04-16T05:44:54.765Z,22.59
2023-04-16T05:45:27.957Z,22.55
2023-04-16T05:45:59.660Z,22.52
2023-04-16T05:46:31.139Z,22.54
2023-04-16T05:47:02.524Z,22.54
2023-04-16T05:47:33.987Z,22.54
2023-04-16T05:48:05.343Z,22.56
2023-04-16T05:48:36.751Z,22.56
2023-04-16T05:49:08.387Z,22.56
2023-04-16T05:49:39.880Z,22.56
2023-04-16T05:50:11.269Z,22.53
2023-04-16T05:50:42.731Z,22.56
2023-04-16T05:51:14.181Z,22.55
2023-04-16T05:51:45.531Z,22.57
2023-04-16T05:52:16.927Z,22.58
2023-04-16T05:52:48.333Z,22.58
2023-04-16T05:53:19.702Z,22.57
2023-04-16T05:53:51.043Z,22.57
2023-04-16T05:54:22.409Z,22.56
2023-04-16T05:54:53.727Z,22.54
2023-04-16T05:55:25.195Z,22.54
2023-04-16T05:55:56.602Z,22.54
2023-04-16T05:56:27.922Z,22.53
2023-04-16T05:56:59.343Z,22.52
2023-04-16T05:57:30.735Z,22.51
2023-04-16T05:58:02.096Z,22.52
2023-04-16T05:58:33.475Z,22.52
2023-04-16T05:59:04.838Z,22.52
2023-04-16T05:59:36.239Z,22.55
2023-04-16T06:00:07.649Z,22.54
2023-04-16T06:00:38.993Z,22.54
2023-04-16T06:01:10.465Z,22.53
2023-04-16T06:01:41.834Z,22.55
2023-04-16T06:02:13.510Z,22.57
2023-04-16T06:02:45.112Z,22.54
2023-04-16T06:03:16.758Z,22.54
2023-04-16T06:03:48.373Z,22.53
2023-04-16T06:04:19.983Z,22.51
2023-04-16T06:04:51.413Z,22.52
2023-04-16T06:05:22.841Z,22.51
2023-04-16T06:05:54.247Z,22.52
2023-04-16T06:06:25.688Z,22.56
2023-04-16T06:06:57.074Z,22.55
2023-04-16T06:07:28.500Z,22.53
2023-04-16T06:07:59.867Z,22.54
2023-04-16T06:08:31.193Z,22.52
2023-04-16T06:09:02.575Z,22.50
2023-04-16T06:09:33.940Z,22.50
2023-04-16T06:10:05.358Z,22.51
2023-04-16T06:10:36.700Z,22.55
2023-04-16T06:11:08.163Z,22.54
2023-04-16T06:11:39.816Z,22.56
2023-04-16T06:12:11.246Z,22.54
2023-04-16T06:12:42.616Z,22.59
2023-04-16T06:13:13.971Z,22.56
2023-04-16T06:13:45.438Z,22.58
2023-04-16T06:14:16.833Z,22.55
2023-04-16T06:14:48.231Z,22.55
2023-04-16T06:15:19.623Z,22.57
2023-04-16T06:15:51.034Z,22.56
2023-04-16T06:16:22.435Z,22.59
2023-04-16T06:16:53.897Z,22.57
2023-04-16T06:17:25.370Z,22.59
2023-04-16T06:17:58.073Z,22.56
2023-04-16T06:18:30.944Z,22.54
2023-04-16T06:19:02.376Z,22.55
2023-04-16T06:19:33.785Z,22.54
2023-04-16T06:20:05.184Z,22.53
2023-04-16T06:20:36.570Z,22.54
2023-04-16T06:21:07.927Z,22.57
2023-04-16T06:21:39.301Z,22.62
2023-04-16T06:22:10.673Z,22.62
2023-04-16T06:22:42.193Z,22.61
2023-04-16T06:23:13.556Z,22.61
2023-04-16T06:23:44.951Z,22.60
2023-04-16T06:24:16.323Z,22.59
2023-04-16T06:24:47.710Z,22.63
2023-04-16T06:25:19.085Z,22.60
2023-04-16T06:25:50.435Z,22.57
2023-04-16T06:26:21.848Z,22.58
2023-04-16T06:26:53.227Z,22.57
2023-04-16T06:27:24.664Z,22.55
2023-04-16T06:27:56.032Z,22.55
2023-04-16T06:28:27.424Z,22.55
2023-04-16T06:28:58.841Z,22.54
2023-04-16T06:29:40.683Z,22.54
2023-04-16T06:30:13.286Z,22.55
2023-04-16T06:30:44.831Z,22.54
2023-04-16T06:31:16.346Z,22.55
2023-04-16T06:31:47.977Z,22.54
2023-04-16T06:32:19.526Z,22.54
2023-04-16T06:32:51.268Z,22.52
2023-04-16T06:33:22.780Z,22.52
2023-04-16T06:33:54.239Z,22.56
2023-04-16T06:34:25.639Z,22.58
2023-04-16T06:34:57.106Z,22.55
2023-04-16T06:35:28.613Z,22.56
2023-04-16T06:36:00.060Z,22.57
2023-04-16T06:36:31.645Z,22.53
2023-04-16T06:37:03.132Z,22.51
2023-04-16T06:37:34.675Z,22.52
2023-04-16T06:38:06.058Z,22.54
2023-04-16T06:38:37.417Z,22.54
2023-04-16T06:39:08.996Z,22.54
2023-04-16T06:39:40.833Z,22.56
2023-04-16T06:40:12.222Z,22.54
2023-04-16T06:40:43.706Z,22.59
2023-04-16T06:41:15.108Z,22.58
2023-04-16T06:41:46.478Z,22.58
2023-04-16T06:42:17.837Z,22.55
2023-04-16T06:42:49.224Z,22.57
2023-04-16T06:43:20.575Z,22.56
2023-04-16T06:43:51.946Z,22.56
2023-04-16T06:44:23.340Z,22.54
2023-04-16T06:44:54.701Z,22.55
2023-04-16T06:45:26.122Z,22.55
2023-04-16T06:45:57.602Z,22.55
2023-04-16T06:46:29.043Z,22.51
2023-04-16T06:47:00.468Z,22.53
2023-04-16T06:47:31.920Z,22.52
2023-04-16T06:48:03.417Z,22.53
2023-04-16T06:48:34.937Z,22.53
2023-04-16T06:49:06.315Z,22.57
2023-04-16T06:49:37.695Z,22.56
2023-04-16T06:50:09.073Z,22.57
2023-04-16T06:50:40.482Z,22.58
2023-04-16T06:51:11.902Z,22.60
2023-04-16T06:51:43.380Z,22.57
2023-04-16T06:52:14.758Z,22.55
2023-04-16T06:52:46.101Z,22.56
2023-04-16T06:53:17.478Z,22.57
2023-04-16T06:53:48.822Z,22.59
2023-04-16T06:54:20.214Z,22.59
2023-04-16T06:54:51.607Z,22.61
2023-04-16T06:55:23.041Z,22.60
2023-04-16T06:55:54.532Z,22.59
2023-04-16T06:56:25.898Z,22.62
2023-04-16T06:56:57.242Z,22.59
2023-04-16T06:57:28.637Z,22.57